createdAt,value
2023-03-26T00:01:21.441Z,3.05
2023-03-26T00:03:53.596Z,3.08
2023-03-26T00:06:39.985Z,3.28
2023-03-26T00:09:08.148Z,3.45
2023-03-26T00:11:34.570Z,3.25
2023-03-26T00:14:02.705Z,2.40
2023-03-26T00:16:31.143Z,2.63
2023-03-26T00:18:58.045Z,3.60
2023-03-26T00:21:27.860Z,2.65
2023-03-26T00:23:55.496Z,2.72
2023-03-26T00:26:22.597Z,3.17
2023-03-26T00:28:50.830Z,3.33
2023-03-26T00:31:17.787Z,1.92
2023-03-26T00:33:44.208Z,2.13
2023-03-26T00:36:14.450Z,1.80
2023-03-26T00:38:41.479Z,1.30
2023-03-26T00:41:17.893Z,1.48
2023-03-26T00:43:46.330Z,1.23
2023-03-26T00:46:13.081Z,2.03
2023-03-26T00:48:45.571Z,1.98
2023-03-26T00:51:15.451Z,2.00
2023-03-26T00:53:42.341Z,1.80
2023-03-26T00:56:09.133Z,1.17
2023-03-26T00:58:35.794Z,2.17
2023-03-26T01:01:04.191Z,1.50
2023-03-26T01:03:33.750Z,1.58
2023-03-26T01:06:32.882Z,2.17
2023-03-26T01:09:04.309Z,1.10
2023-03-26T01:11:31.995Z,1.25
2023-03-26T01:14:02.500Z,1.05
2023-03-26T01:16:28.830Z,1.02
2023-03-26T01:18:58.665Z,0.80
2023-03-26T01:21:28.736Z,1.10
2023-03-26T01:23:57.611Z,0.98
2023-03-26T01:26:42.773Z,0.70
2023-03-26T01:29:14.154Z,0.70
2023-03-26T01:31:48.257Z,0.60
2023-03-26T01:34:21.381Z,0.63
2023-03-26T01:36:47.698Z,0.60
2023-03-26T01:39:38.800Z,0.80
2023-03-26T01:42:08.310Z,1.00
2023-03-26T01:44:38.620Z,1.00
2023-03-26T01:47:05.983Z,0.95
2023-03-26T01:49:32.393Z,1.08
2023-03-26T01:51:58.820Z,1.50
2023-03-26T01:54:27.499Z,1.80
2023-03-26T01:56:57.062Z,1.15
2023-03-26T01:59:35.381Z,0.88
2023-03-26T02:02:04.895Z,0.52
2023-03-26T02:04:38.661Z,0.70
2023-03-26T02:07:11.561Z,0.60
2023-03-26T02:09:47.618Z,0.52
2023-03-26T02:12:14.604Z,0.73
2023-03-26T02:14:42.444Z,1.05
2023-03-26T02:19:37.322Z,0.70
2023-03-26T02:22:03.750Z,0.57
2023-03-26T02:24:30.127Z,0.43
2023-03-26T02:26:58.086Z,0.73
2023-03-26T02:31:52.997Z,0.50
2023-03-26T02:34:19.431Z,0.60
2023-03-26T02:36:45.880Z,0.70
2023-03-26T02:39:14.267Z,0.85
2023-03-26T02:41:40.913Z,0.82
2023-03-26T02:44:07.266Z,0.75
2023-03-26T02:46:33.755Z,0.85
2023-03-26T02:49:00.212Z,1.15
2023-03-26T02:51:27.376Z,1.10
2023-03-26T02:53:54.752Z,1.63
2023-03-26T02:56:21.233Z,1.75
2023-03-26T02:58:48.364Z,1.60
2023-03-26T03:01:18.320Z,1.15
2023-03-26T03:03:47.247Z,1.08
2023-03-26T03:06:14.026Z,1.40
2023-03-26T03:08:41.616Z,1.13
2023-03-26T03:11:12.191Z,1.10
2023-03-26T03:13:38.543Z,1.15
2023-03-26T03:16:05.616Z,1.20
2023-03-26T03:18:31.935Z,1.13
2023-03-26T03:20:58.343Z,1.67
2023-03-26T03:23:24.732Z,1.20
2023-03-26T03:25:52.600Z,1.02
2023-03-26T03:28:19.443Z,0.77
2023-03-26T03:30:45.980Z,1.02
2023-03-26T03:33:13.145Z,1.13
2023-03-26T03:35:40.177Z,1.10
2023-03-26T03:38:06.645Z,1.33
2023-03-26T03:40:32.974Z,1.10
2023-03-26T03:42:59.358Z,1.50
2023-03-26T03:45:25.907Z,1.73
2023-03-26T03:47:53.132Z,3.22
2023-03-26T03:50:19.604Z,1.27
2023-03-26T03:52:46.376Z,1.58
2023-03-26T03:55:14.027Z,2.03
2023-03-26T03:57:40.658Z,1.80
2023-03-26T04:00:10.088Z,1.50
2023-03-26T04:02:36.538Z,1.48
2023-03-26T04:05:03.597Z,1.42
2023-03-26T04:07:33.128Z,1.60
2023-03-26T04:10:00.176Z,1.80
2023-03-26T04:12:29.857Z,2.33
2023-03-26T04:14:56.627Z,1.95
2023-03-26T04:17:23.226Z,1.75
2023-03-26T04:19:50.423Z,2.30
2023-03-26T04:22:19.349Z,2.90
2023-03-26T04:24:45.944Z,2.00
2023-03-26T04:27:13.951Z,2.33
2023-03-26T04:32:34.027Z,1.73
2023-03-26T04:35:03.549Z,2.92
2023-03-26T04:37:34.687Z,2.28
2023-03-26T04:40:06.492Z,2.80
2023-03-26T04:42:33.390Z,2.20
2023-03-26T04:44:59.872Z,3.25
2023-03-26T04:47:26.280Z,4.20
2023-03-26T04:49:52.624Z,2.80
2023-03-26T04:52:19.049Z,3.47
2023-03-26T04:54:46.008Z,3.72
2023-03-26T04:57:15.962Z,3.60
2023-03-26T04:59:42.994Z,3.65
2023-03-26T05:02:11.552Z,4.78
2023-03-26T05:04:40.818Z,8.48
2023-03-26T05:07:07.436Z,4.40
2023-03-26T05:09:33.789Z,5.03
2023-03-26T05:12:00.205Z,3.72
2023-03-26T05:14:26.529Z,8.95
2023-03-26T05:16:53.360Z,4.38
2023-03-26T05:19:19.864Z,5.88
2023-03-26T05:21:46.181Z,2.88
2023-03-26T05:24:12.520Z,4.53
2023-03-26T05:26:38.863Z,5.85
2023-03-26T05:29:05.320Z,5.03
2023-03-26T05:31:31.673Z,3.90
2023-03-26T05:34:00.297Z,5.45
2023-03-26T05:36:28.405Z,3.40
2023-03-26T05:38:54.837Z,3.40
2023-03-26T05:41:21.178Z,4.93
2023-03-26T05:43:48.945Z,4.60
2023-03-26T05:46:15.543Z,4.35
2023-03-26T05:48:41.890Z,5.00
2023-03-26T05:51:08.344Z,4.10
2023-03-26T05:53:34.958Z,3.30
2023-03-26T05:56:02.025Z,3.47
2023-03-26T05:58:29.289Z,2.90
2023-03-26T06:01:00.040Z,3.10
2023-03-26T06:03:26.674Z,3.38
2023-03-26T06:05:53.155Z,3.80
2023-03-26T06:08:20.564Z,2.70
2023-03-26T06:10:46.952Z,3.20
2023-03-26T06:13:13.654Z,3.20
2023-03-26T06:15:40.261Z,2.95
2023-03-26T06:18:06.605Z,1.92
2023-03-26T06:20:32.972Z,2.13
2023-03-26T06:22:59.386Z,2.30
2023-03-26T06:25:26.009Z,1.67
2023-03-26T06:27:52.385Z,1.60
2023-03-26T06:30:18.746Z,1.80
2023-03-26T06:32:45.359Z,2.05
2023-03-26T06:35:11.773Z,1.65
2023-03-26T06:37:38.290Z,1.90
2023-03-26T06:40:05.035Z,1.90
2023-03-26T06:43:08.301Z,2.30
2023-03-26T06:45:17.797Z,2.60
2023-03-26T06:47:44.182Z,2.67
2023-03-26T06:50:11.843Z,2.60
2023-03-26T06:52:38.254Z,2.55
2023-03-26T06:55:06.465Z,2.80
2023-03-26T06:57:32.779Z,1.90
2023-03-26T06:59:59.101Z,1.63
2023-03-26T07:02:25.619Z,0.68
2023-03-26T07:04:51.940Z,0.60
2023-03-26T07:07:20.588Z,0.40
2023-03-26T07:09:48.002Z,0.40
2023-03-26T07:12:14.700Z,0.28
2023-03-26T07:14:41.087Z,0.30
2023-03-26T07:17:07.555Z,0.15
2023-03-26T07:19:33.939Z,0.20
2023-03-26T07:22:00.648Z,0.20
2023-03-26T07:24:27.400Z,0.20
2023-03-26T07:27:06.515Z,0.30
2023-03-26T07:29:41.633Z,0.10
2023-03-26T07:32:41.733Z,0.10
2023-03-26T07:35:10.939Z,0.10
2023-03-26T07:37:48.720Z,0.10
2023-03-26T07:42:46.340Z,0.10
2023-03-26T07:45:15.497Z,0.10
2023-03-26T07:47:42.434Z,0.20
2023-03-26T07:50:15.672Z,0.20
2023-03-26T07:52:43.650Z,0.10
2023-03-26T07:55:14.114Z,0.22
2023-03-26T07:58:00.963Z,0.20
2023-03-26T08:00:31.021Z,3.13
2023-03-26T08:03:01.318Z,15.98
2023-03-26T08:05:33.012Z,14.65
2023-03-26T08:07:59.300Z,23.45
2023-03-26T08:10:28.509Z,8.20
2023-03-26T08:13:07.042Z,1.92
2023-03-26T08:15:41.792Z,22.27
2023-03-26T08:18:14.216Z,4.57
2023-03-26T08:20:45.702Z,10.73
2023-03-26T08:23:21.922Z,27.95
2023-03-26T08:26:12.820Z,11.68
2023-03-26T08:28:48.611Z,12.13
2023-03-26T08:31:15.615Z,3.85
2023-03-26T08:33:42.166Z,4.22
2023-03-26T08:36:09.289Z,2.30
2023-03-26T08:38:35.804Z,0.17
2023-03-26T08:41:08.058Z,0.10
2023-03-26T08:43:46.677Z,0.05
2023-03-26T08:46:28.605Z,0.20
2023-03-26T08:49:10.303Z,0.10
2023-03-26T08:51:45.711Z,0.20
2023-03-26T08:54:31.504Z,0.20
2023-03-26T08:57:13.168Z,0.20
2023-03-26T08:59:58.322Z,0.20
2023-03-26T09:02:30.789Z,0.30
2023-03-26T09:05:03.251Z,0.30
2023-03-26T09:07:32.625Z,0.63
2023-03-26T09:09:58.937Z,0.30
2023-03-26T09:12:36.665Z,0.40
2023-03-26T09:15:18.421Z,0.30
2023-03-26T09:17:55.929Z,0.28
2023-03-26T09:20:26.701Z,0.20
2023-03-26T09:22:53.158Z,0.20
2023-03-26T09:25:22.637Z,0.20
2023-03-26T09:27:56.304Z,0.10
2023-03-26T09:30:31.884Z,0.20
2023-03-26T09:32:58.360Z,0.20
2023-03-26T09:35:43.445Z,0.20
2023-03-26T09:38:45.796Z,0.20
2023-03-26T09:41:15.518Z,0.10
2023-03-26T09:44:00.716Z,0.30
2023-03-26T09:46:46.622Z,0.20
2023-03-26T09:49:13.004Z,0.40
2023-03-26T09:51:45.582Z,0.20
2023-03-26T09:54:23.908Z,0.52
2023-03-26T09:56:50.623Z,0.40
2023-03-26T09:59:32.002Z,0.40
2023-03-26T10:02:17.254Z,0.38
2023-03-26T10:04:56.159Z,0.30
2023-03-26T10:07:25.377Z,0.20
2023-03-26T10:10:10.668Z,0.13
2023-03-26T10:12:39.391Z,0.20
2023-03-26T10:15:19.500Z,0.20
2023-03-26T10:17:51.473Z,0.20
2023-03-26T10:20:24.748Z,0.20
2023-03-26T10:23:03.044Z,0.10
2023-03-26T10:25:29.418Z,0.20
2023-03-26T10:28:22.443Z,0.10
2023-03-26T10:30:55.987Z,0.20
2023-03-26T10:33:52.217Z,0.20
2023-03-26T10:36:35.411Z,0.13
2023-03-26T10:39:09.348Z,0.20
2023-03-26T10:41:35.671Z,0.30
2023-03-26T10:44:16.851Z,0.30
2023-03-26T10:46:58.545Z,0.20
2023-03-26T10:49:27.956Z,0.30
2023-03-26T10:52:06.684Z,0.15
2023-03-26T10:54:39.157Z,0.30
2023-03-26T10:57:19.163Z,0.22
2023-03-26T10:59:45.676Z,0.10
2023-03-26T11:02:29.934Z,0.30
2023-03-26T11:04:56.977Z,0.30
2023-03-26T11:07:23.284Z,0.20
2023-03-26T11:10:04.311Z,0.20
2023-03-26T11:12:44.057Z,0.30
2023-03-26T11:15:17.771Z,0.30
2023-03-26T11:18:02.976Z,0.30
2023-03-26T11:20:39.651Z,0.30
2023-03-26T11:23:09.148Z,0.40
2023-03-26T11:25:44.569Z,0.40
2023-03-26T11:28:29.818Z,0.40
2023-03-26T11:31:02.562Z,0.50
2023-03-26T11:33:45.587Z,0.35
2023-03-26T11:36:16.604Z,0.75
2023-03-26T11:38:53.678Z,0.70
2023-03-26T11:41:25.454Z,0.40
2023-03-26T11:43:56.305Z,0.60
2023-03-26T11:46:23.607Z,0.63
2023-03-26T11:48:52.841Z,0.60
2023-03-26T11:51:35.680Z,0.60
2023-03-26T11:54:03.117Z,0.85
2023-03-26T11:56:34.429Z,0.93
2023-03-26T11:59:05.246Z,1.10
2023-03-26T12:01:44.159Z,1.13
2023-03-26T12:04:13.575Z,1.10
2023-03-26T12:06:50.413Z,1.17
2023-03-26T12:09:17.675Z,1.67
2023-03-26T12:11:45.161Z,2.40
2023-03-26T12:14:17.804Z,2.40
2023-03-26T12:17:03.099Z,2.95
2023-03-26T12:19:38.275Z,3.00
2023-03-26T12:22:05.038Z,3.65
2023-03-26T12:24:33.340Z,4.00
2023-03-26T12:27:02.264Z,4.80
2023-03-26T12:29:30.003Z,5.60
2023-03-26T12:32:07.490Z,5.88
2023-03-26T12:34:38.126Z,5.97
2023-03-26T12:37:05.888Z,6.63
2023-03-26T12:40:09.298Z,4.20
2023-03-26T12:44:51.110Z,2.83
2023-03-26T12:45:14.843Z,2.30
2023-03-26T12:48:00.604Z,2.22
2023-03-26T12:50:51.255Z,2.08
2023-03-26T12:53:17.971Z,2.00
2023-03-26T12:55:51.149Z,2.20
2023-03-26T12:58:29.537Z,2.47
2023-03-26T13:01:11.212Z,2.10
2023-03-26T13:03:51.818Z,2.42
2023-03-26T13:06:26.560Z,2.10
2023-03-26T13:08:53.261Z,1.90
2023-03-26T13:11:25.651Z,2.20
2023-03-26T13:14:00.740Z,2.40
2023-03-26T13:16:27.193Z,2.50
2023-03-26T13:19:15.973Z,2.33
2023-03-26T13:21:46.001Z,2.53
2023-03-26T13:24:18.493Z,2.80
2023-03-26T13:27:03.536Z,2.25
2023-03-26T13:29:39.368Z,1.95
2023-03-26T13:32:17.974Z,1.75
2023-03-26T13:35:07.437Z,1.98
2023-03-26T13:37:42.643Z,1.90
2023-03-26T13:40:19.630Z,1.80
2023-03-26T13:42:49.044Z,1.63
2023-03-26T13:45:41.224Z,1.20
2023-03-26T13:48:12.808Z,1.50
2023-03-26T13:50:41.355Z,1.58
2023-03-26T13:53:14.043Z,1.35
2023-03-26T13:55:42.483Z,1.55
2023-03-26T13:58:08.769Z,1.52
2023-03-26T14:00:54.638Z,1.15
2023-03-26T14:03:28.999Z,1.45
2023-03-26T14:05:57.088Z,1.70
2023-03-26T14:08:29.198Z,1.30
2023-03-26T14:10:59.237Z,1.50
2023-03-26T14:13:48.951Z,1.20
2023-03-26T14:16:27.879Z,1.08
2023-03-26T14:19:04.811Z,1.10
2023-03-26T14:21:44.307Z,1.00
2023-03-26T14:24:13.502Z,1.55
2023-03-26T14:26:43.439Z,1.48
2023-03-26T14:29:18.701Z,1.10
2023-03-26T14:31:45.082Z,1.80
2023-03-26T14:34:21.505Z,2.10
2023-03-26T14:37:06.082Z,1.77
2023-03-26T14:39:51.075Z,1.88
2023-03-26T14:42:25.672Z,2.20
2023-03-26T14:45:10.609Z,2.17
2023-03-26T14:48:03.331Z,2.05
2023-03-26T14:50:31.494Z,2.20
2023-03-26T14:53:01.224Z,1.63
2023-03-26T14:55:36.886Z,2.20
2023-03-26T14:58:09.346Z,1.70
2023-03-26T15:00:47.997Z,2.00
2023-03-26T15:03:17.453Z,1.90
2023-03-26T15:05:53.076Z,2.55
2023-03-26T15:08:34.110Z,2.90
2023-03-26T15:11:01.156Z,2.55
2023-03-26T15:13:27.464Z,2.60
2023-03-26T15:16:12.997Z,1.98
2023-03-26T15:18:42.353Z,2.70
2023-03-26T15:21:18.053Z,2.60
2023-03-26T15:23:46.269Z,2.78
2023-03-26T15:26:18.360Z,2.80
2023-03-26T15:29:03.936Z,3.92
2023-03-26T15:31:42.691Z,5.97
2023-03-26T15:34:20.075Z,6.75
2023-03-26T15:37:19.408Z,4.28
2023-03-26T15:40:18.023Z,3.75
2023-03-26T15:43:06.728Z,3.47
2023-03-26T15:45:42.157Z,3.55
2023-03-26T15:48:11.780Z,3.10
2023-03-26T15:50:44.155Z,3.50
2023-03-26T15:53:29.427Z,3.70
2023-03-26T15:56:03.264Z,3.45
2023-03-26T15:58:41.736Z,5.32
2023-03-26T16:01:18.845Z,4.60
2023-03-26T16:03:49.242Z,3.50
2023-03-26T16:06:28.317Z,3.85
2023-03-26T16:09:00.973Z,3.67
2023-03-26T16:11:52.701Z,3.90
2023-03-26T16:14:34.162Z,2.67
2023-03-26T16:17:01.372Z,2.67
2023-03-26T16:19:36.740Z,3.20
2023-03-26T16:22:05.784Z,2.35
2023-03-26T16:24:36.657Z,2.00
2023-03-26T16:27:08.304Z,2.45
2023-03-26T16:29:56.298Z,2.30
2023-03-26T16:32:28.559Z,2.63
2023-03-26T16:34:57.285Z,2.35
2023-03-26T16:37:37.524Z,2.75
2023-03-26T16:40:16.456Z,2.47
2023-03-26T16:42:49.894Z,2.20
2023-03-26T16:45:22.428Z,2.75
2023-03-26T16:47:48.785Z,2.13
2023-03-26T16:50:34.094Z,1.88
2023-03-26T16:53:00.942Z,2.00
2023-03-26T16:55:43.271Z,2.53
2023-03-26T16:58:15.350Z,2.78
2023-03-26T17:01:05.057Z,2.40
2023-03-26T17:03:35.606Z,3.20
2023-03-26T17:06:11.848Z,2.63
2023-03-26T17:08:38.161Z,3.58
2023-03-26T17:11:09.243Z,3.20
2023-03-26T17:13:44.789Z,3.63
2023-03-26T17:16:26.136Z,3.90
2023-03-26T17:19:00.586Z,3.38
2023-03-26T17:21:45.918Z,3.20
2023-03-26T17:24:23.722Z,3.30
2023-03-26T17:26:55.364Z,4.03
2023-03-26T17:29:21.709Z,3.65
2023-03-26T17:31:48.100Z,3.67
2023-03-26T17:34:33.025Z,3.17
2023-03-26T17:36:59.908Z,3.40
2023-03-26T17:39:38.556Z,3.80
2023-03-26T17:42:13.349Z,2.97
2023-03-26T17:44:50.480Z,3.20
2023-03-26T17:47:23.534Z,3.83
2023-03-26T17:49:52.992Z,3.42
2023-03-26T17:52:19.322Z,3.72
2023-03-26T17:54:47.179Z,3.60
2023-03-26T17:59:41.088Z,3.78
2023-03-26T18:02:12.447Z,3.42
2023-03-26T18:04:40.489Z,3.55
2023-03-26T18:07:16.958Z,5.68
2023-03-26T18:10:00.628Z,7.07
2023-03-26T18:12:35.950Z,9.93
2023-03-26T18:15:02.263Z,14.82
2023-03-26T18:17:31.739Z,23.65
2023-03-26T18:20:06.078Z,16.08
2023-03-26T18:22:32.911Z,20.40
2023-03-26T18:25:00.598Z,21.67
2023-03-26T18:27:33.276Z,17.23
2023-03-26T18:30:01.927Z,12.45
2023-03-26T18:32:33.804Z,12.52
2023-03-26T18:35:02.866Z,11.70
2023-03-26T18:37:31.662Z,11.23
2023-03-26T18:40:12.208Z,11.38
2023-03-26T18:42:39.983Z,12.05
2023-03-26T18:45:15.615Z,10.55
2023-03-26T18:47:43.398Z,10.85
2023-03-26T18:50:16.871Z,11.50
2023-03-26T18:52:44.249Z,12.23
2023-03-26T18:55:14.452Z,12.57
2023-03-26T18:57:41.562Z,13.32
2023-03-26T19:00:18.453Z,14.90
2023-03-26T19:02:46.093Z,9.83
2023-03-26T19:05:13.810Z,9.20
2023-03-26T19:07:40.802Z,8.90
2023-03-26T19:10:08.006Z,9.03
2023-03-26T19:12:35.745Z,8.93
2023-03-26T19:15:04.884Z,10.30
2023-03-26T19:17:32.579Z,9.63
2023-03-26T19:19:59.000Z,11.15
2023-03-26T19:22:25.638Z,9.98
2023-03-26T19:24:55.849Z,8.90
2023-03-26T19:27:22.811Z,8.75
2023-03-26T19:29:49.226Z,9.07
2023-03-26T19:32:19.894Z,8.55
2023-03-26T19:34:47.028Z,7.38
2023-03-26T19:37:23.880Z,7.73
2023-03-26T19:40:08.997Z,7.63
2023-03-26T19:42:43.141Z,7.65
2023-03-26T19:45:23.953Z,6.80
2023-03-26T19:48:03.605Z,7.45
2023-03-26T19:50:42.096Z,7.60
2023-03-26T19:53:17.717Z,8.93
2023-03-26T19:56:04.453Z,8.65
2023-03-26T19:58:31.777Z,8.73
2023-03-26T20:00:58.553Z,9.38
2023-03-26T20:03:29.376Z,8.93
2023-03-26T20:05:56.202Z,8.80
2023-03-26T20:08:29.048Z,8.73
2023-03-26T20:10:56.365Z,8.70
2023-03-26T20:13:22.834Z,9.98
2023-03-26T20:16:05.125Z,10.10
2023-03-26T20:18:32.543Z,10.52
2023-03-26T20:20:59.049Z,10.63
2023-03-26T20:23:28.764Z,10.43
2023-03-26T20:25:55.439Z,11.90
2023-03-26T20:28:22.305Z,11.68
2023-03-26T20:30:49.393Z,11.13
2023-03-26T20:33:17.958Z,11.47
2023-03-26T20:35:44.850Z,13.00
2023-03-26T20:38:11.447Z,13.20
2023-03-26T20:40:38.546Z,12.55
2023-03-26T20:43:09.428Z,13.02
2023-03-26T20:45:35.739Z,12.57
2023-03-26T20:48:02.795Z,13.65
2023-03-26T20:50:30.032Z,13.23
2023-03-26T20:52:59.798Z,14.48
2023-03-26T20:55:26.203Z,13.85
2023-03-26T20:57:52.861Z,15.50
2023-03-26T21:00:22.114Z,14.93
2023-03-26T21:02:53.471Z,12.57
2023-03-26T21:05:26.916Z,15.23
2023-03-26T21:07:53.998Z,15.10
2023-03-26T21:10:20.964Z,13.70
2023-03-26T21:12:50.579Z,12.68
2023-03-26T21:15:23.571Z,9.77
2023-03-26T21:17:51.498Z,10.57
2023-03-26T21:20:18.974Z,10.20
2023-03-26T21:23:04.547Z,13.38
2023-03-26T21:25:35.407Z,13.45
2023-03-26T21:28:17.138Z,10.00
2023-03-26T21:30:43.873Z,9.38
2023-03-26T21:33:10.240Z,11.25
2023-03-26T21:35:36.834Z,12.93
2023-03-26T21:38:04.398Z,12.77
2023-03-26T21:40:30.946Z,12.82
2023-03-26T21:42:57.512Z,13.75
2023-03-26T21:45:24.126Z,12.95
2023-03-26T21:47:50.758Z,13.27
2023-03-26T21:50:18.403Z,14.13
2023-03-26T21:52:48.401Z,13.20
2023-03-26T21:55:16.072Z,12.77
2023-03-26T21:57:50.888Z,13.27
2023-03-26T22:00:18.663Z,13.63
2023-03-26T22:02:48.094Z,13.75
2023-03-26T22:05:16.254Z,12.93
2023-03-26T22:07:50.304Z,11.98
2023-03-26T22:10:17.082Z,12.80
2023-03-26T22:12:43.537Z,13.02
2023-03-26T22:15:13.633Z,13.02
2023-03-26T22:17:41.640Z,13.50
2023-03-26T22:20:12.616Z,15.73
2023-03-26T22:22:39.650Z,16.20
2023-03-26T22:25:06.047Z,15.67
2023-03-26T22:27:32.558Z,14.90
2023-03-26T22:32:37.164Z,15.63
2023-03-26T22:35:04.197Z,16.08
2023-03-26T22:37:30.724Z,14.27
2023-03-26T22:39:57.336Z,15.07
2023-03-26T22:42:24.031Z,14.90
2023-03-26T22:44:50.558Z,14.65
2023-03-26T22:47:16.995Z,14.70
2023-03-26T22:49:43.897Z,14.63
2023-03-26T22:52:10.317Z,14.73
2023-03-26T22:54:37.062Z,14.30
2023-03-26T22:57:03.832Z,14.43
2023-03-26T22:59:30.238Z,14.73
2023-03-26T23:01:56.670Z,13.98
2023-03-26T23:04:30.617Z,15.02
2023-03-26T23:06:58.123Z,14.18
2023-03-26T23:09:27.375Z,14.18
2023-03-26T23:11:53.713Z,14.18
2023-03-26T23:14:20.084Z,14.07
2023-03-26T23:16:46.401Z,13.73
2023-03-26T23:19:12.760Z,14.30
2023-03-26T23:21:39.251Z,12.50
2023-03-26T23:24:05.687Z,13.02
2023-03-26T23:26:49.566Z,13.45
2023-03-26T23:29:17.370Z,14.38
2023-03-26T23:31:43.887Z,14.50
2023-03-26T23:34:10.942Z,16.70
2023-03-26T23:36:37.390Z,15.17
2023-03-26T23:39:04.717Z,15.60
2023-03-26T23:41:31.320Z,14.32
2023-03-26T23:43:57.721Z,15.35
2023-03-26T23:46:25.010Z,15.75
2023-03-26T23:48:51.581Z,16.67
2023-03-26T23:51:20.079Z,16.73
2023-03-26T23:53:46.744Z,15.73
2023-03-26T23:56:13.282Z,15.43
2023-03-26T23:58:40.207Z,15.68
